sensor_id;sensor_type;location;lat;lon;timestamp;P1;durP1;ratioP1;P2;durP2;ratioP2
64651;SDS011;51062;45.120;37.660;2022-08-19T00:02:14;23.25;;;8.77;;
64651;SDS011;51062;45.120;37.660;2022-08-19T00:04:40;20.85;;;9.50;;
64651;SDS011;51062;45.120;37.660;2022-08-19T00:07:06;29.85;;;9.77;;
64651;SDS011;51062;45.120;37.660;2022-08-19T00:09:33;28.17;;;10.15;;
64651;SDS011;51062;45.120;37.660;2022-08-19T00:12:00;26.42;;;9.68;;
64651;SDS011;51062;45.120;37.660;2022-08-19T00:14:27;23.67;;;9.13;;
64651;SDS011;51062;45.120;37.660;2022-08-19T00:16:56;21.63;;;8.88;;
64651;SDS011;51062;45.120;37.660;2022-08-19T00:19:23;20.90;;;11.07;;
64651;SDS011;51062;45.120;37.660;2022-08-19T00:21:49;21.88;;;12.80;;
64651;SDS011;51062;45.120;37.660;2022-08-19T00:24:16;33.63;;;19.77;;
64651;SDS011;51062;45.120;37.660;2022-08-19T00:26:43;32.40;;;18.55;;
64651;SDS011;51062;45.120;37.660;2022-08-19T00:29:11;34.13;;;18.88;;
64651;SDS011;51062;45.120;37.660;2022-08-19T00:31:39;34.58;;;19.33;;
64651;SDS011;51062;45.120;37.660;2022-08-19T00:34:07;36.05;;;22.48;;
64651;SDS011;51062;45.120;37.660;2022-08-19T00:36:33;43.42;;;22.08;;
64651;SDS011;51062;45.120;37.660;2022-08-19T00:38:59;40.72;;;21.90;;
64651;SDS011;51062;45.120;37.660;2022-08-19T00:41:26;40.20;;;21.80;;
64651;SDS011;51062;45.120;37.660;2022-08-19T00:43:57;38.33;;;21.20;;
64651;SDS011;51062;45.120;37.660;2022-08-19T00:46:29;34.35;;;20.38;;
64651;SDS011;51062;45.120;37.660;2022-08-19T00:48:58;35.60;;;19.92;;
64651;SDS011;51062;45.120;37.660;2022-08-19T00:51:26;35.38;;;19.40;;
64651;SDS011;51062;45.120;37.660;2022-08-19T00:53:55;33.22;;;19.05;;
64651;SDS011;51062;45.120;37.660;2022-08-19T00:56:23;38.28;;;18.60;;
64651;SDS011;51062;45.120;37.660;2022-08-19T00:58:52;28.60;;;16.98;;
64651;SDS011;51062;45.120;37.660;2022-08-19T01:01:21;31.85;;;18.00;;
64651;SDS011;51062;45.120;37.660;2022-08-19T01:03:48;35.05;;;21.27;;
64651;SDS011;51062;45.120;37.660;2022-08-19T01:06:14;46.13;;;26.10;;
64651;SDS011;51062;45.120;37.660;2022-08-19T01:08:40;57.45;;;33.72;;
64651;SDS011;51062;45.120;37.660;2022-08-19T01:11:06;63.00;;;39.60;;
64651;SDS011;51062;45.120;37.660;2022-08-19T01:13:35;62.38;;;38.35;;
64651;SDS011;51062;45.120;37.660;2022-08-19T01:16:04;79.25;;;47.53;;
64651;SDS011;51062;45.120;37.660;2022-08-19T01:18:33;76.82;;;46.30;;
64651;SDS011;51062;45.120;37.660;2022-08-19T01:21:09;74.03;;;45.13;;
64651;SDS011;51062;45.120;37.660;2022-08-19T01:23:42;67.65;;;41.15;;
64651;SDS011;51062;45.120;37.660;2022-08-19T01:26:11;58.53;;;36.58;;
64651;SDS011;51062;45.120;37.660;2022-08-19T01:28:41;46.25;;;28.52;;
64651;SDS011;51062;45.120;37.660;2022-08-19T01:31:10;36.60;;;21.63;;
64651;SDS011;51062;45.120;37.660;2022-08-19T01:33:41;35.33;;;19.63;;
64651;SDS011;51062;45.120;37.660;2022-08-19T01:36:09;27.95;;;17.88;;
64651;SDS011;51062;45.120;37.660;2022-08-19T01:38:39;27.23;;;16.73;;
64651;SDS011;51062;45.120;37.660;2022-08-19T01:41:08;24.02;;;14.00;;
64651;SDS011;51062;45.120;37.660;2022-08-19T01:43:36;23.15;;;13.20;;
64651;SDS011;51062;45.120;37.660;2022-08-19T01:46:03;22.98;;;13.88;;
64651;SDS011;51062;45.120;37.660;2022-08-19T01:48:34;25.95;;;15.20;;
64651;SDS011;51062;45.120;37.660;2022-08-19T01:51:02;25.45;;;15.43;;
64651;SDS011;51062;45.120;37.660;2022-08-19T01:53:28;29.98;;;16.38;;
64651;SDS011;51062;45.120;37.660;2022-08-19T01:55:55;32.33;;;16.77;;
64651;SDS011;51062;45.120;37.660;2022-08-19T01:58:22;32.33;;;17.67;;
64651;SDS011;51062;45.120;37.660;2022-08-19T02:01:03;34.28;;;19.75;;
64651;SDS011;51062;45.120;37.660;2022-08-19T02:03:30;34.92;;;19.98;;
64651;SDS011;51062;45.120;37.660;2022-08-19T02:05:57;32.55;;;19.90;;
64651;SDS011;51062;45.120;37.660;2022-08-19T02:08:29;38.38;;;21.08;;
64651;SDS011;51062;45.120;37.660;2022-08-19T02:10:56;40.75;;;21.27;;
64651;SDS011;51062;45.120;37.660;2022-08-19T02:13:23;39.53;;;22.48;;
64651;SDS011;51062;45.120;37.660;2022-08-19T02:15:50;41.70;;;22.13;;
64651;SDS011;51062;45.120;37.660;2022-08-19T02:18:16;38.22;;;20.00;;
64651;SDS011;51062;45.120;37.660;2022-08-19T02:20:43;37.95;;;22.30;;
64651;SDS011;51062;45.120;37.660;2022-08-19T02:23:10;44.55;;;23.05;;
64651;SDS011;51062;45.120;37.660;2022-08-19T02:25:37;43.42;;;21.42;;
64651;SDS011;51062;45.120;37.660;2022-08-19T02:28:04;42.75;;;24.00;;
64651;SDS011;51062;45.120;37.660;2022-08-19T02:30:30;47.20;;;26.77;;
64651;SDS011;51062;45.120;37.660;2022-08-19T02:32:57;58.90;;;33.30;;
64651;SDS011;51062;45.120;37.660;2022-08-19T02:35:23;75.47;;;41.65;;
64651;SDS011;51062;45.120;37.660;2022-08-19T02:37:50;78.57;;;41.75;;
64651;SDS011;51062;45.120;37.660;2022-08-19T02:40:34;93.10;;;52.38;;
64651;SDS011;51062;45.120;37.660;2022-08-19T02:43:02;88.10;;;49.63;;
64651;SDS011;51062;45.120;37.660;2022-08-19T02:45:33;86.63;;;44.55;;
64651;SDS011;51062;45.120;37.660;2022-08-19T02:48:01;73.88;;;41.35;;
64651;SDS011;51062;45.120;37.660;2022-08-19T02:50:28;66.25;;;37.60;;
64651;SDS011;51062;45.120;37.660;2022-08-19T02:52:54;62.85;;;36.20;;
64651;SDS011;51062;45.120;37.660;2022-08-19T02:55:20;63.53;;;32.90;;
64651;SDS011;51062;45.120;37.660;2022-08-19T02:57:46;58.00;;;28.73;;
64651;SDS011;51062;45.120;37.660;2022-08-19T03:00:13;58.92;;;28.73;;
64651;SDS011;51062;45.120;37.660;2022-08-19T03:02:39;59.65;;;28.80;;
64651;SDS011;51062;45.120;37.660;2022-08-19T03:05:06;49.28;;;24.95;;
64651;SDS011;51062;45.120;37.660;2022-08-19T03:07:35;34.33;;;17.77;;
64651;SDS011;51062;45.120;37.660;2022-08-19T03:10:03;40.05;;;21.60;;
64651;SDS011;51062;45.120;37.660;2022-08-19T03:12:30;39.65;;;20.33;;
64651;SDS011;51062;45.120;37.660;2022-08-19T03:14:56;65.75;;;35.78;;
64651;SDS011;51062;45.120;37.660;2022-08-19T03:17:22;66.20;;;37.70;;
64651;SDS011;51062;45.120;37.660;2022-08-19T03:19:48;73.97;;;42.10;;
64651;SDS011;51062;45.120;37.660;2022-08-19T03:22:14;71.55;;;42.95;;
64651;SDS011;51062;45.120;37.660;2022-08-19T03:24:40;73.28;;;44.92;;
64651;SDS011;51062;45.120;37.660;2022-08-19T03:27:06;75.18;;;43.53;;
64651;SDS011;51062;45.120;37.660;2022-08-19T03:29:33;62.53;;;39.88;;
64651;SDS011;51062;45.120;37.660;2022-08-19T03:32:04;65.72;;;39.80;;
64651;SDS011;51062;45.120;37.660;2022-08-19T03:34:31;69.00;;;39.25;;
64651;SDS011;51062;45.120;37.660;2022-08-19T03:37:03;59.65;;;36.70;;
64651;SDS011;51062;45.120;37.660;2022-08-19T03:39:31;65.18;;;37.92;;
64651;SDS011;51062;45.120;37.660;2022-08-19T03:41:57;63.42;;;35.50;;
64651;SDS011;51062;45.120;37.660;2022-08-19T03:44:25;50.70;;;32.20;;
64651;SDS011;51062;45.120;37.660;2022-08-19T03:46:54;53.05;;;31.05;;
64651;SDS011;51062;45.120;37.660;2022-08-19T03:49:25;43.65;;;25.50;;
64651;SDS011;51062;45.120;37.660;2022-08-19T03:51:54;33.33;;;18.60;;
64651;SDS011;51062;45.120;37.660;2022-08-19T03:54:21;31.50;;;16.23;;
64651;SDS011;51062;45.120;37.660;2022-08-19T03:56:49;25.23;;;15.23;;
64651;SDS011;51062;45.120;37.660;2022-08-19T03:59:22;26.73;;;14.07;;
64651;SDS011;51062;45.120;37.660;2022-08-19T04:02:00;26.73;;;16.40;;
64651;SDS011;51062;45.120;37.660;2022-08-19T04:04:34;23.48;;;13.10;;
64651;SDS011;51062;45.120;37.660;2022-08-19T04:07:01;18.58;;;10.48;;
64651;SDS011;51062;45.120;37.660;2022-08-19T04:09:28;18.45;;;9.90;;
64651;SDS011;51062;45.120;37.660;2022-08-19T04:11:55;14.63;;;8.07;;
64651;SDS011;51062;45.120;37.660;2022-08-19T04:14:23;12.88;;;8.55;;
64651;SDS011;51062;45.120;37.660;2022-08-19T04:16:51;15.48;;;8.38;;
64651;SDS011;51062;45.120;37.660;2022-08-19T04:19:19;24.10;;;9.88;;
64651;SDS011;51062;45.120;37.660;2022-08-19T04:21:46;39.28;;;16.25;;
64651;SDS011;51062;45.120;37.660;2022-08-19T04:24:16;68.18;;;26.48;;
64651;SDS011;51062;45.120;37.660;2022-08-19T04:26:42;79.93;;;32.83;;
64651;SDS011;51062;45.120;37.660;2022-08-19T04:29:11;72.95;;;30.08;;
64651;SDS011;51062;45.120;37.660;2022-08-19T04:31:42;57.47;;;22.85;;
64651;SDS011;51062;45.120;37.660;2022-08-19T04:34:11;24.42;;;11.07;;
64651;SDS011;51062;45.120;37.660;2022-08-19T04:36:39;28.23;;;8.95;;
64651;SDS011;51062;45.120;37.660;2022-08-19T04:39:08;35.65;;;10.00;;
64651;SDS011;51062;45.120;37.660;2022-08-19T04:41:36;31.08;;;8.57;;
64651;SDS011;51062;45.120;37.660;2022-08-19T04:44:22;21.50;;;8.60;;
64651;SDS011;51062;45.120;37.660;2022-08-19T04:46:48;17.55;;;7.53;;
64651;SDS011;51062;45.120;37.660;2022-08-19T04:49:16;18.25;;;8.07;;
64651;SDS011;51062;45.120;37.660;2022-08-19T04:51:44;17.10;;;8.70;;
64651;SDS011;51062;45.120;37.660;2022-08-19T04:54:12;34.90;;;14.75;;
64651;SDS011;51062;45.120;37.660;2022-08-19T04:56:39;39.45;;;14.85;;
64651;SDS011;51062;45.120;37.660;2022-08-19T04:59:06;32.67;;;9.95;;
64651;SDS011;51062;45.120;37.660;2022-08-19T05:01:34;56.08;;;15.85;;
64651;SDS011;51062;45.120;37.660;2022-08-19T05:04:02;57.40;;;17.65;;
64651;SDS011;51062;45.120;37.660;2022-08-19T05:06:32;44.00;;;19.52;;
64651;SDS011;51062;45.120;37.660;2022-08-19T05:09:02;43.97;;;17.25;;
64651;SDS011;51062;45.120;37.660;2022-08-19T05:11:33;49.88;;;25.48;;
64651;SDS011;51062;45.120;37.660;2022-08-19T05:14:04;39.55;;;20.08;;
64651;SDS011;51062;45.120;37.660;2022-08-19T05:16:31;45.95;;;21.08;;
64651;SDS011;51062;45.120;37.660;2022-08-19T05:18:57;35.58;;;15.93;;
64651;SDS011;51062;45.120;37.660;2022-08-19T05:24:27;28.25;;;8.65;;
64651;SDS011;51062;45.120;37.660;2022-08-19T05:26:54;17.25;;;8.40;;
64651;SDS011;51062;45.120;37.660;2022-08-19T05:29:25;15.82;;;6.68;;
64651;SDS011;51062;45.120;37.660;2022-08-19T05:31:53;17.67;;;6.93;;
64651;SDS011;51062;45.120;37.660;2022-08-19T05:34:20;41.50;;;8.45;;
64651;SDS011;51062;45.120;37.660;2022-08-19T05:36:51;21.30;;;5.30;;
64651;SDS011;51062;45.120;37.660;2022-08-19T05:39:23;10.68;;;4.00;;
64651;SDS011;51062;45.120;37.660;2022-08-19T05:41:57;48.95;;;5.18;;
64651;SDS011;51062;45.120;37.660;2022-08-19T05:44:26;7.57;;;4.72;;
64651;SDS011;51062;45.120;37.660;2022-08-19T05:47:00;12.13;;;3.85;;
64651;SDS011;51062;45.120;37.660;2022-08-19T05:49:28;9.93;;;3.70;;
64651;SDS011;51062;45.120;37.660;2022-08-19T05:51:55;9.65;;;4.25;;
64651;SDS011;51062;45.120;37.660;2022-08-19T05:54:21;8.10;;;4.30;;
64651;SDS011;51062;45.120;37.660;2022-08-19T05:56:49;7.97;;;4.22;;
64651;SDS011;51062;45.120;37.660;2022-08-19T05:59:17;10.20;;;4.05;;
64651;SDS011;51062;45.120;37.660;2022-08-19T06:01:47;6.75;;;4.40;;
64651;SDS011;51062;45.120;37.660;2022-08-19T06:04:19;11.18;;;3.78;;
64651;SDS011;51062;45.120;37.660;2022-08-19T06:06:48;7.18;;;4.40;;
64651;SDS011;51062;45.120;37.660;2022-08-19T06:09:17;9.40;;;3.92;;
64651;SDS011;51062;45.120;37.660;2022-08-19T06:11:46;11.35;;;4.50;;
64651;SDS011;51062;45.120;37.660;2022-08-19T06:14:22;10.32;;;4.47;;
64651;SDS011;51062;45.120;37.660;2022-08-19T06:16:50;8.80;;;4.45;;
64651;SDS011;51062;45.120;37.660;2022-08-19T06:19:18;61.25;;;5.53;;
64651;SDS011;51062;45.120;37.660;2022-08-19T06:21:47;15.13;;;4.30;;
64651;SDS011;51062;45.120;37.660;2022-08-19T06:24:15;10.50;;;4.57;;
64651;SDS011;51062;45.120;37.660;2022-08-19T06:26:45;8.55;;;5.53;;
64651;SDS011;51062;45.120;37.660;2022-08-19T06:29:13;19.63;;;4.60;;
64651;SDS011;51062;45.120;37.660;2022-08-19T06:31:42;14.82;;;4.28;;
64651;SDS011;51062;45.120;37.660;2022-08-19T06:34:09;10.85;;;5.43;;
64651;SDS011;51062;45.120;37.660;2022-08-19T06:36:37;8.13;;;4.40;;
64651;SDS011;51062;45.120;37.660;2022-08-19T06:39:07;11.65;;;4.70;;
64651;SDS011;51062;45.120;37.660;2022-08-19T06:41:36;9.25;;;5.15;;
64651;SDS011;51062;45.120;37.660;2022-08-19T06:44:07;8.88;;;4.10;;
64651;SDS011;51062;45.120;37.660;2022-08-19T06:46:34;13.35;;;3.83;;
64651;SDS011;51062;45.120;37.660;2022-08-19T06:49:00;14.18;;;8.82;;
64651;SDS011;51062;45.120;37.660;2022-08-19T06:51:26;11.57;;;4.90;;
64651;SDS011;51062;45.120;37.660;2022-08-19T06:53:54;14.65;;;4.70;;
64651;SDS011;51062;45.120;37.660;2022-08-19T06:56:22;109.35;;;7.50;;
64651;SDS011;51062;45.120;37.660;2022-08-19T06:59:04;10.98;;;3.92;;
64651;SDS011;51062;45.120;37.660;2022-08-19T07:01:35;14.45;;;4.35;;
64651;SDS011;51062;45.120;37.660;2022-08-19T07:04:06;5.80;;;4.07;;
64651;SDS011;51062;45.120;37.660;2022-08-19T07:06:34;8.25;;;5.40;;
64651;SDS011;51062;45.120;37.660;2022-08-19T07:09:01;10.45;;;4.40;;
64651;SDS011;51062;45.120;37.660;2022-08-19T07:11:29;10.75;;;5.00;;
64651;SDS011;51062;45.120;37.660;2022-08-19T07:13:56;8.02;;;4.80;;
64651;SDS011;51062;45.120;37.660;2022-08-19T07:16:22;13.80;;;4.50;;
64651;SDS011;51062;45.120;37.660;2022-08-19T07:18:49;7.25;;;3.92;;
64651;SDS011;51062;45.120;37.660;2022-08-19T07:21:17;7.43;;;4.03;;
64651;SDS011;51062;45.120;37.660;2022-08-19T07:23:48;12.30;;;5.00;;
64651;SDS011;51062;45.120;37.660;2022-08-19T07:26:16;6.43;;;4.30;;
64651;SDS011;51062;45.120;37.660;2022-08-19T07:28:45;14.30;;;4.57;;
64651;SDS011;51062;45.120;37.660;2022-08-19T07:31:13;9.25;;;5.35;;
64651;SDS011;51062;45.120;37.660;2022-08-19T07:33:42;9.00;;;5.32;;
64651;SDS011;51062;45.120;37.660;2022-08-19T07:36:09;14.63;;;5.72;;
64651;SDS011;51062;45.120;37.660;2022-08-19T07:38:38;7.20;;;4.60;;
64651;SDS011;51062;45.120;37.660;2022-08-19T07:41:08;17.35;;;5.25;;
64651;SDS011;51062;45.120;37.660;2022-08-19T07:43:37;12.23;;;5.10;;
64651;SDS011;51062;45.120;37.660;2022-08-19T07:46:04;8.43;;;4.95;;
64651;SDS011;51062;45.120;37.660;2022-08-19T07:48:31;10.43;;;5.10;;
64651;SDS011;51062;45.120;37.660;2022-08-19T07:50:58;11.55;;;4.80;;
64651;SDS011;51062;45.120;37.660;2022-08-19T07:53:27;11.45;;;4.35;;
64651;SDS011;51062;45.120;37.660;2022-08-19T07:55:54;8.52;;;4.35;;
64651;SDS011;51062;45.120;37.660;2022-08-19T07:58:25;9.90;;;4.35;;
64651;SDS011;51062;45.120;37.660;2022-08-19T08:00:52;12.02;;;5.10;;
64651;SDS011;51062;45.120;37.660;2022-08-19T08:03:19;8.70;;;4.35;;
64651;SDS011;51062;45.120;37.660;2022-08-19T08:06:07;11.77;;;4.55;;
64651;SDS011;51062;45.120;37.660;2022-08-19T08:08:52;8.15;;;5.55;;
64651;SDS011;51062;45.120;37.660;2022-08-19T08:14:07;28.27;;;5.60;;
64651;SDS011;51062;45.120;37.660;2022-08-19T08:16:36;9.77;;;5.03;;
64651;SDS011;51062;45.120;37.660;2022-08-19T08:19:06;8.93;;;4.40;;
64651;SDS011;51062;45.120;37.660;2022-08-19T08:21:32;8.63;;;4.70;;
64651;SDS011;51062;45.120;37.660;2022-08-19T08:23:59;13.43;;;4.60;;
64651;SDS011;51062;45.120;37.660;2022-08-19T08:26:25;11.63;;;4.95;;
64651;SDS011;51062;45.120;37.660;2022-08-19T08:28:51;8.77;;;5.10;;
64651;SDS011;51062;45.120;37.660;2022-08-19T08:31:18;8.73;;;4.95;;
64651;SDS011;51062;45.120;37.660;2022-08-19T08:33:45;7.53;;;4.10;;
64651;SDS011;51062;45.120;37.660;2022-08-19T08:36:12;13.35;;;5.60;;
64651;SDS011;51062;45.120;37.660;2022-08-19T08:38:39;10.80;;;4.88;;
64651;SDS011;51062;45.120;37.660;2022-08-19T08:43:45;17.05;;;5.10;;
64651;SDS011;51062;45.120;37.660;2022-08-19T08:46:19;18.10;;;5.38;;
64651;SDS011;51062;45.120;37.660;2022-08-19T08:48:54;9.13;;;4.75;;
64651;SDS011;51062;45.120;37.660;2022-08-19T08:51:27;50.00;;;7.53;;
64651;SDS011;51062;45.120;37.660;2022-08-19T08:53:59;32.28;;;5.78;;
64651;SDS011;51062;45.120;37.660;2022-08-19T08:56:27;16.88;;;5.30;;
64651;SDS011;51062;45.120;37.660;2022-08-19T09:01:27;10.13;;;5.22;;
64651;SDS011;51062;45.120;37.660;2022-08-19T09:03:54;7.05;;;4.72;;
64651;SDS011;51062;45.120;37.660;2022-08-19T09:06:40;10.98;;;5.07;;
64651;SDS011;51062;45.120;37.660;2022-08-19T09:09:18;11.98;;;5.07;;
64651;SDS011;51062;45.120;37.660;2022-08-19T09:11:59;10.57;;;5.53;;
64651;SDS011;51062;45.120;37.660;2022-08-19T09:17:18;9.45;;;5.63;;
64651;SDS011;51062;45.120;37.660;2022-08-19T09:20:00;11.80;;;5.18;;
64651;SDS011;51062;45.120;37.660;2022-08-19T09:22:33;16.90;;;8.68;;
64651;SDS011;51062;45.120;37.660;2022-08-19T09:25:00;12.23;;;5.47;;
64651;SDS011;51062;45.120;37.660;2022-08-19T09:27:28;84.70;;;32.55;;
64651;SDS011;51062;45.120;37.660;2022-08-19T09:29:54;41.47;;;17.38;;
64651;SDS011;51062;45.120;37.660;2022-08-19T09:32:21;34.05;;;12.52;;
64651;SDS011;51062;45.120;37.660;2022-08-19T09:34:48;23.33;;;11.85;;
64651;SDS011;51062;45.120;37.660;2022-08-19T09:37:14;17.67;;;9.77;;
64651;SDS011;51062;45.120;37.660;2022-08-19T09:39:41;16.80;;;8.82;;
64651;SDS011;51062;45.120;37.660;2022-08-19T09:42:08;13.73;;;6.63;;
64651;SDS011;51062;45.120;37.660;2022-08-19T09:44:40;8.52;;;4.93;;
64651;SDS011;51062;45.120;37.660;2022-08-19T09:47:08;9.98;;;4.88;;
64651;SDS011;51062;45.120;37.660;2022-08-19T09:49:36;13.32;;;5.85;;
64651;SDS011;51062;45.120;37.660;2022-08-19T09:52:05;12.40;;;5.20;;
64651;SDS011;51062;45.120;37.660;2022-08-19T09:54:33;11.70;;;5.30;;
64651;SDS011;51062;45.120;37.660;2022-08-19T09:57:00;15.88;;;5.30;;
64651;SDS011;51062;45.120;37.660;2022-08-19T09:59:26;9.70;;;6.32;;
64651;SDS011;51062;45.120;37.660;2022-08-19T10:01:54;7.53;;;4.63;;
64651;SDS011;51062;45.120;37.660;2022-08-19T10:04:21;9.40;;;5.47;;
64651;SDS011;51062;45.120;37.660;2022-08-19T10:06:47;8.77;;;5.28;;
64651;SDS011;51062;45.120;37.660;2022-08-19T10:09:16;9.75;;;5.45;;
64651;SDS011;51062;45.120;37.660;2022-08-19T10:11:43;19.63;;;5.68;;
64651;SDS011;51062;45.120;37.660;2022-08-19T10:14:15;49.45;;;7.60;;
64651;SDS011;51062;45.120;37.660;2022-08-19T10:16:42;34.60;;;6.32;;
64651;SDS011;51062;45.120;37.660;2022-08-19T10:19:08;34.47;;;6.25;;
64651;SDS011;51062;45.120;37.660;2022-08-19T10:21:35;35.85;;;6.00;;
64651;SDS011;51062;45.120;37.660;2022-08-19T10:24:02;19.40;;;5.82;;
64651;SDS011;51062;45.120;37.660;2022-08-19T10:26:31;15.25;;;6.00;;
64651;SDS011;51062;45.120;37.660;2022-08-19T10:29:07;14.30;;;6.57;;
64651;SDS011;51062;45.120;37.660;2022-08-19T10:31:33;16.60;;;7.82;;
64651;SDS011;51062;45.120;37.660;2022-08-19T10:34:00;19.27;;;7.45;;
64651;SDS011;51062;45.120;37.660;2022-08-19T10:36:27;16.10;;;6.97;;
64651;SDS011;51062;45.120;37.660;2022-08-19T10:38:56;22.45;;;6.40;;
64651;SDS011;51062;45.120;37.660;2022-08-19T10:41:28;22.05;;;6.93;;
64651;SDS011;51062;45.120;37.660;2022-08-19T10:43:57;16.23;;;7.25;;
64651;SDS011;51062;45.120;37.660;2022-08-19T10:46:25;19.20;;;6.28;;
64651;SDS011;51062;45.120;37.660;2022-08-19T10:48:53;17.70;;;6.68;;
64651;SDS011;51062;45.120;37.660;2022-08-19T10:51:20;13.65;;;6.88;;
64651;SDS011;51062;45.120;37.660;2022-08-19T10:54:05;17.73;;;6.05;;
64651;SDS011;51062;45.120;37.660;2022-08-19T10:56:32;17.42;;;6.22;;
64651;SDS011;51062;45.120;37.660;2022-08-19T10:59:27;16.27;;;6.20;;
64651;SDS011;51062;45.120;37.660;2022-08-19T11:01:59;30.27;;;7.10;;
64651;SDS011;51062;45.120;37.660;2022-08-19T11:04:27;15.90;;;6.55;;
64651;SDS011;51062;45.120;37.660;2022-08-19T11:06:53;21.65;;;7.80;;
64651;SDS011;51062;45.120;37.660;2022-08-19T11:09:21;15.00;;;7.78;;
64651;SDS011;51062;45.120;37.660;2022-08-19T11:11:55;21.75;;;7.90;;
64651;SDS011;51062;45.120;37.660;2022-08-19T11:14:22;15.85;;;7.50;;
64651;SDS011;51062;45.120;37.660;2022-08-19T11:16:49;17.52;;;8.27;;
64651;SDS011;51062;45.120;37.660;2022-08-19T11:19:17;12.90;;;7.60;;
64651;SDS011;51062;45.120;37.660;2022-08-19T11:21:45;17.70;;;8.77;;
64651;SDS011;51062;45.120;37.660;2022-08-19T11:24:17;20.45;;;8.50;;
64651;SDS011;51062;45.120;37.660;2022-08-19T11:26:48;17.70;;;9.15;;
64651;SDS011;51062;45.120;37.660;2022-08-19T11:29:16;19.95;;;10.10;;
64651;SDS011;51062;45.120;37.660;2022-08-19T11:31:45;24.83;;;11.57;;
64651;SDS011;51062;45.120;37.660;2022-08-19T11:34:18;29.30;;;13.20;;
64651;SDS011;51062;45.120;37.660;2022-08-19T11:36:47;24.50;;;10.10;;
64651;SDS011;51062;45.120;37.660;2022-08-19T11:39:17;21.90;;;7.57;;
64651;SDS011;51062;45.120;37.660;2022-08-19T11:41:44;25.98;;;8.10;;
64651;SDS011;51062;45.120;37.660;2022-08-19T11:44:11;25.80;;;8.05;;
64651;SDS011;51062;45.120;37.660;2022-08-19T11:46:40;15.82;;;6.68;;
64651;SDS011;51062;45.120;37.660;2022-08-19T11:49:10;14.95;;;6.80;;
64651;SDS011;51062;45.120;37.660;2022-08-19T11:51:38;16.65;;;6.55;;
64651;SDS011;51062;45.120;37.660;2022-08-19T11:54:05;13.35;;;6.03;;
64651;SDS011;51062;45.120;37.660;2022-08-19T11:56:31;14.25;;;6.50;;
64651;SDS011;51062;45.120;37.660;2022-08-19T11:58:58;18.55;;;6.82;;
64651;SDS011;51062;45.120;37.660;2022-08-19T12:01:27;13.63;;;6.38;;
64651;SDS011;51062;45.120;37.660;2022-08-19T12:03:54;9.98;;;6.43;;
64651;SDS011;51062;45.120;37.660;2022-08-19T12:06:25;15.60;;;7.03;;
64651;SDS011;51062;45.120;37.660;2022-08-19T12:08:58;15.10;;;6.60;;
64651;SDS011;51062;45.120;37.660;2022-08-19T12:11:26;14.82;;;6.45;;
64651;SDS011;51062;45.120;37.660;2022-08-19T12:13:53;17.80;;;6.43;;
64651;SDS011;51062;45.120;37.660;2022-08-19T12:16:22;14.50;;;6.43;;
64651;SDS011;51062;45.120;37.660;2022-08-19T12:18:51;15.45;;;6.53;;
64651;SDS011;51062;45.120;37.660;2022-08-19T12:21:19;15.65;;;6.32;;
64651;SDS011;51062;45.120;37.660;2022-08-19T12:23:48;22.95;;;6.82;;
64651;SDS011;51062;45.120;37.660;2022-08-19T12:26:18;15.38;;;6.78;;
64651;SDS011;51062;45.120;37.660;2022-08-19T12:28:44;13.30;;;6.68;;
64651;SDS011;51062;45.120;37.660;2022-08-19T12:31:11;17.10;;;7.30;;
64651;SDS011;51062;45.120;37.660;2022-08-19T12:33:37;16.15;;;6.97;;
64651;SDS011;51062;45.120;37.660;2022-08-19T12:36:05;12.07;;;6.45;;
64651;SDS011;51062;45.120;37.660;2022-08-19T12:38:33;15.82;;;7.00;;
64651;SDS011;51062;45.120;37.660;2022-08-19T12:41:00;14.38;;;6.40;;
64651;SDS011;51062;45.120;37.660;2022-08-19T12:43:28;12.93;;;6.68;;
64651;SDS011;51062;45.120;37.660;2022-08-19T12:45:55;21.23;;;6.72;;
64651;SDS011;51062;45.120;37.660;2022-08-19T12:48:21;12.60;;;6.32;;
64651;SDS011;51062;45.120;37.660;2022-08-19T12:50:47;18.67;;;7.72;;
64651;SDS011;51062;45.120;37.660;2022-08-19T12:53:14;14.43;;;6.97;;
64651;SDS011;51062;45.120;37.660;2022-08-19T12:55:41;13.57;;;7.00;;
64651;SDS011;51062;45.120;37.660;2022-08-19T12:58:10;13.65;;;6.75;;
64651;SDS011;51062;45.120;37.660;2022-08-19T13:00:38;8.82;;;6.40;;
64651;SDS011;51062;45.120;37.660;2022-08-19T13:03:04;10.90;;;6.65;;
64651;SDS011;51062;45.120;37.660;2022-08-19T13:05:32;10.05;;;5.90;;
64651;SDS011;51062;45.120;37.660;2022-08-19T13:07:59;55.17;;;8.50;;
64651;SDS011;51062;45.120;37.660;2022-08-19T13:10:27;19.10;;;6.38;;
64651;SDS011;51062;45.120;37.660;2022-08-19T13:13:02;13.98;;;6.35;;
64651;SDS011;51062;45.120;37.660;2022-08-19T13:15:32;12.63;;;6.10;;
64651;SDS011;51062;45.120;37.660;2022-08-19T13:18:01;10.93;;;6.80;;
64651;SDS011;51062;45.120;37.660;2022-08-19T13:20:27;14.32;;;6.28;;
64651;SDS011;51062;45.120;37.660;2022-08-19T13:22:55;14.13;;;6.65;;
64651;SDS011;51062;45.120;37.660;2022-08-19T13:25:22;16.65;;;6.80;;
64651;SDS011;51062;45.120;37.660;2022-08-19T13:27:50;10.98;;;6.05;;
64651;SDS011;51062;45.120;37.660;2022-08-19T13:30:17;12.95;;;5.70;;
64651;SDS011;51062;45.120;37.660;2022-08-19T13:33:03;9.45;;;5.25;;
64651;SDS011;51062;45.120;37.660;2022-08-19T13:35:49;16.75;;;5.90;;
64651;SDS011;51062;45.120;37.660;2022-08-19T13:38:20;12.00;;;5.80;;
64651;SDS011;51062;45.120;37.660;2022-08-19T13:40:48;52.55;;;6.55;;
64651;SDS011;51062;45.120;37.660;2022-08-19T13:43:15;22.98;;;4.70;;
64651;SDS011;51062;45.120;37.660;2022-08-19T13:45:42;26.25;;;4.75;;
64651;SDS011;51062;45.120;37.660;2022-08-19T13:48:09;107.40;;;9.18;;
64651;SDS011;51062;45.120;37.660;2022-08-19T13:50:38;10.32;;;4.20;;
64651;SDS011;51062;45.120;37.660;2022-08-19T13:53:07;10.38;;;3.78;;
64651;SDS011;51062;45.120;37.660;2022-08-19T13:55:37;11.30;;;4.40;;
64651;SDS011;51062;45.120;37.660;2022-08-19T13:58:04;6.32;;;4.15;;
64651;SDS011;51062;45.120;37.660;2022-08-19T14:00:32;11.68;;;4.50;;
64651;SDS011;51062;45.120;37.660;2022-08-19T14:03:01;10.77;;;4.05;;
64651;SDS011;51062;45.120;37.660;2022-08-19T14:05:29;9.60;;;3.92;;
64651;SDS011;51062;45.120;37.660;2022-08-19T14:07:56;11.77;;;4.13;;
64651;SDS011;51062;45.120;37.660;2022-08-19T14:10:24;12.15;;;3.95;;
64651;SDS011;51062;45.120;37.660;2022-08-19T14:12:52;7.90;;;3.40;;
64651;SDS011;51062;45.120;37.660;2022-08-19T14:15:21;8.75;;;4.13;;
64651;SDS011;51062;45.120;37.660;2022-08-19T14:17:49;23.55;;;4.78;;
64651;SDS011;51062;45.120;37.660;2022-08-19T14:20:16;12.85;;;3.67;;
64651;SDS011;51062;45.120;37.660;2022-08-19T14:22:43;9.75;;;4.18;;
64651;SDS011;51062;45.120;37.660;2022-08-19T14:25:12;10.50;;;3.95;;
64651;SDS011;51062;45.120;37.660;2022-08-19T14:27:44;7.70;;;4.20;;
64651;SDS011;51062;45.120;37.660;2022-08-19T14:30:11;6.22;;;3.65;;
64651;SDS011;51062;45.120;37.660;2022-08-19T14:32:39;12.95;;;4.30;;
64651;SDS011;51062;45.120;37.660;2022-08-19T14:35:09;9.77;;;3.50;;
64651;SDS011;51062;45.120;37.660;2022-08-19T14:37:37;9.95;;;2.80;;
64651;SDS011;51062;45.120;37.660;2022-08-19T14:40:05;6.85;;;2.90;;
64651;SDS011;51062;45.120;37.660;2022-08-19T14:42:33;6.38;;;2.95;;